Weather reports worldwide

Advertisment
Newcastle, United Kingdom (3245): temperature & dewpoint: 23.05.2020 13:00:00 - 29.05.2020 13:00:00 (BST)Newcastle, United Kingdom (3245): wind speed: 23.05.2020 13:00:00 - 29.05.2020 13:00:00 (BST)Newcastle, United Kingdom (3245): wind direction: 23.05.2020 13:00:00 - 29.05.2020 13:00:00 (BST)Newcastle, United Kingdom (3245): visibility: 23.05.2020 13:00:00 - 29.05.2020 13:00:00 (BST)
Date & Time tt [°C] td [°C] ff [km/h] ff [kn] dd vv [km]
29.05.2020 13:00:00 24,0 8,0 11 6 S 10
29.05.2020 12:00:00 24,0 8,0 11 6 SSE 10
29.05.2020 11:00:00 23,0 8,0 8 4 SSE 10
29.05.2020 10:00:00 22,0 8,0 5 3 - 10
29.05.2020 09:00:00 20,0 9,0 2 1 - 10
29.05.2020 08:00:00 17,0 9,0 4 2 - 10
29.05.2020 07:00:00 14,0 10,0 2 1 - 10
29.05.2020 06:00:00 10,0 8,0 2 1 WSW 10
29.05.2020 05:00:00 10,0 7,0 0 0 N 10
29.05.2020 04:00:00 9,0 5,0 2 1 S 10
29.05.2020 03:00:00 12,0 8,0 5 3 - 10
29.05.2020 02:00:00 12,0 7,0 4 2 S 10
29.05.2020 01:00:00 14,0 8,0 4 2 - 10
29.05.2020 00:00:00 11,0 6,0 0 0 N 10
28.05.2020 23:00:00 13,0 6,0 0 0 N 10
28.05.2020 22:00:00 17,0 7,0 5 3 - 10
28.05.2020 21:00:00 18,0 6,0 9 5 SSE 10
28.05.2020 20:00:00 19,0 7,0 13 7 SE 10
28.05.2020 19:00:00 21,0 7,0 11 6 SE 10
28.05.2020 18:00:00 22,0 8,0 11 6 SE 10
28.05.2020 17:00:00 22,0 9,0 9 5 SE 10
28.05.2020 16:00:00 23,0 9,0 8 4 E 10
28.05.2020 15:00:00 24,0 8,0 5 3 - 10
28.05.2020 14:00:00 23,0 7,0 5 3 - 10
28.05.2020 13:00:00 23,0 6,0 5 3 - 10
28.05.2020 12:00:00 22,0 7,0 8 4 S 10
28.05.2020 11:00:00 21,0 7,0 5 3 - 10
28.05.2020 10:00:00 19,0 7,0 4 2 - 10
28.05.2020 09:00:00 16,0 6,0 5 3 - 10
28.05.2020 08:00:00 12,0 10,0 4 2 - 10
28.05.2020 07:00:00 9,0 8,0 2 1 - 10
28.05.2020 06:00:00 7,0 6,0 2 1 - 10
28.05.2020 05:00:00 6,0 5,0 0 0 N 10
28.05.2020 04:00:00 7,0 5,0 2 1 - 10
28.05.2020 03:00:00 6,0 5,0 0 0 N 10
28.05.2020 02:00:00 6,0 4,0 5 3 - 8
28.05.2020 01:00:00 6,0 4,0 0 0 N 9
28.05.2020 00:00:00 7,0 5,0 0 0 N 10
27.05.2020 23:00:00 8,0 5,0 4 2 NE 10
27.05.2020 22:00:00 8,0 5,0 5 3 - 10
27.05.2020 21:00:00 10,0 5,0 5 3 - 10
27.05.2020 20:00:00 12,0 6,0 9 5 E 10
27.05.2020 19:00:00 13,0 5,0 15 8 ENE 10
27.05.2020 18:00:00 15,0 4,0 15 8 ENE 10
27.05.2020 17:00:00 15,0 4,0 16 9 ENE 10
27.05.2020 16:00:00 15,0 4,0 18 10 ENE 10
27.05.2020 15:00:00 15,0 5,0 16 9 NE 10
27.05.2020 14:00:00 16,0 5,0 15 8 NE 10
27.05.2020 13:00:00 14,0 4,0 18 10 NE 10
27.05.2020 12:00:00 15,0 6,0 18 10 NE 10
27.05.2020 11:00:00 15,0 3,0 11 6 NNE 10
27.05.2020 10:00:00 14,0 3,0 13 7 N 10
27.05.2020 09:00:00 13,0 6,0 13 7 NW 10
27.05.2020 08:00:00 11,0 8,0 15 8 W 10
27.05.2020 07:00:00 9,0 7,0 8 4 W 10
27.05.2020 06:00:00 6,0 5,0 5 3 WSW 10
27.05.2020 05:00:00 6,0 5,0 8 4 W 10
27.05.2020 04:00:00 6,0 5,0 8 4 WSW 10
27.05.2020 03:00:00 7,0 6,0 5 3 SW 10
27.05.2020 02:00:00 6,0 5,0 4 2 - 10
27.05.2020 01:00:00 7,0 5,0 5 3 WNW 10
27.05.2020 00:00:00 8,0 6,0 4 2 WNW 10
26.05.2020 23:00:00 9,0 7,0 0 0 N 10
26.05.2020 22:00:00 10,0 7,0 2 1 E 10
26.05.2020 21:00:00 12,0 8,0 8 4 ENE 10
26.05.2020 20:00:00 15,0 9,0 11 6 E 10
26.05.2020 19:00:00 16,0 10,0 16 9 E 10
26.05.2020 18:00:00 17,0 10,0 13 7 ENE 10
26.05.2020 17:00:00 19,0 9,0 5 3 - 10
26.05.2020 16:00:00 20,0 7,0 15 8 WSW 10
26.05.2020 15:00:00 21,0 7,0 15 8 WSW 10
26.05.2020 14:00:00 19,0 8,0 18 10 W 10
26.05.2020 13:00:00 19,0 9,0 22 12 W 10
26.05.2020 12:00:00 18,0 11,0 21 11 W 10
26.05.2020 11:00:00 17,0 11,0 18 10 W 10
26.05.2020 10:00:00 17,0 10,0 18 10 W 10
26.05.2020 09:00:00 17,0 11,0 16 9 WSW 10
26.05.2020 08:00:00 14,0 10,0 13 7 WSW 10
26.05.2020 07:00:00 13,0 9,0 8 4 WSW 10
26.05.2020 06:00:00 12,0 8,0 4 2 - 10
26.05.2020 05:00:00 12,0 7,0 4 2 - 10
26.05.2020 04:00:00 11,0 7,0 5 3 SSW 10
26.05.2020 03:00:00 11,0 7,0 4 2 S 10
26.05.2020 02:00:00 11,0 6,0 2 1 - 10
26.05.2020 01:00:00 12,0 6,0 5 3 WNW 10
26.05.2020 00:00:00 12,0 6,0 8 4 W 10
25.05.2020 23:00:00 12,0 5,0 11 6 WNW 10
25.05.2020 22:00:00 12,0 4,0 4 2 - 10
25.05.2020 21:00:00 14,0 3,0 16 9 W 10
25.05.2020 20:00:00 17,0 2,0 18 10 SW 10
25.05.2020 19:00:00 18,0 3,0 11 6 SW 10
25.05.2020 18:00:00 19,0 3,0 15 8 WSW 10
25.05.2020 17:00:00 20,0 1,0 28 15 WSW 10
25.05.2020 16:00:00 20,0 4,0 16 9 SW 10
25.05.2020 15:00:00 21,0 4,0 24 13 WSW 10
25.05.2020 14:00:00 22,0 6,0 16 9 SW 10
25.05.2020 13:00:00 21,0 5,0 18 10 SW 10
25.05.2020 12:00:00 20,0 6,0 13 7 SW 10
25.05.2020 11:00:00 19,0 7,0 8 4 SSW 10
25.05.2020 10:00:00 18,0 7,0 5 3 - 10
25.05.2020 09:00:00 16,0 8,0 5 3 - 10
25.05.2020 08:00:00 14,0 11,0 5 3 - 10
25.05.2020 07:00:00 10,0 9,0 4 2 WSW 10
25.05.2020 06:00:00 7,0 6,0 8 4 SW 10
25.05.2020 05:00:00 7,0 6,0 2 1 - 9
25.05.2020 04:00:00 7,0 6,0 4 2 S 6
25.05.2020 03:00:00 8,0 6,0 4 2 S 10
25.05.2020 02:00:00 10,0 7,0 5 3 - 10
25.05.2020 01:00:00 10,0 8,0 5 3 WSW 10
25.05.2020 00:00:00 10,0 7,0 13 7 W 10
24.05.2020 23:00:00 11,0 8,0 8 4 WSW 10
24.05.2020 22:00:00 12,0 8,0 11 6 WSW 10
24.05.2020 21:00:00 14,0 8,0 15 8 WSW 10
24.05.2020 20:00:00 15,0 8,0 28 15 W 10
24.05.2020 19:00:00 16,0 8,0 24 13 W 10
24.05.2020 18:00:00 17,0 8,0 31 17 W 10
24.05.2020 17:00:00 17,0 9,0 31 17 WNW 10
24.05.2020 16:00:00 16,0 9,0 29 16 W 10
24.05.2020 15:00:00 17,0 9,0 39 21 W 10
24.05.2020 14:00:00 17,0 10,0 41 22 W 10
24.05.2020 13:00:00 15,0 9,0 31 17 W 10
24.05.2020 12:00:00 16,0 10,0 37 20 W 10
24.05.2020 11:00:00 14,0 9,0 26 14 W 10
24.05.2020 10:00:00 15,0 10,0 37 20 W 10
24.05.2020 09:00:00 14,0 9,0 35 19 W 10
24.05.2020 08:00:00 13,0 10,0 31 17 W 10
24.05.2020 07:00:00 13,0 9,0 29 16 W 10
24.05.2020 06:00:00 12,0 9,0 26 14 W 7
24.05.2020 05:00:00 12,0 8,0 28 15 WSW 10
24.05.2020 04:00:00 12,0 8,0 26 14 W 10
24.05.2020 03:00:00 12,0 8,0 28 15 WSW 10
24.05.2020 02:00:00 11,0 6,0 24 13 WSW 10
24.05.2020 01:00:00 11,0 5,0 31 17 WSW 10
24.05.2020 00:00:00 11,0 4,0 37 20 W 10
23.05.2020 23:00:00 11,0 4,0 37 20 W 10
23.05.2020 22:00:00 11,0 5,0 39 21 W 10
23.05.2020 21:00:00 12,0 5,0 34 18 WSW 10
23.05.2020 20:00:00 13,0 5,0 37 20 W 10
23.05.2020 19:00:00 13,0 5,0 34 18 WSW 10
23.05.2020 18:00:00 13,0 5,0 39 21 WSW 10
23.05.2020 17:00:00 13,0 6,0 42 23 WSW 10
23.05.2020 16:00:00 14,0 5,0 46 25 WSW 10
23.05.2020 15:00:00 14,0 5,0 48 26 WSW 10
23.05.2020 14:00:00 13,0 4,0 34 18 WSW 10
23.05.2020 13:00:00 13,0 5,0 37 20 SW 10

tt = temperature
td = dewpoint
ff = wind speed
dd = wind direction
vv = visibility

Next stations